Time;durP1;ratioP1;P1;durP2;ratioP2;P2;SDS_P1;SDS_P2;PMS_P1;PMS_P2;Temp;Humidity;BMP_temperature;BMP_pressure;BME280_temperature;BME280_humidity;BME280_pressure;Samples;Min_cycle;Max_cycle;Signal;HPM_P1;HPM_P2
2023/06/29 00:00:11;;;;;;;;;50.75;40.50;;;;;;;;5085353;27;45368;-66
2023/06/29 00:02:37;;;;;;;;;61.75;49.00;;;;;;;;5080179;27;45323;-65
2023/06/29 00:05:02;;;;;;;;;75.00;58.25;;;;;;;;5091569;27;46204;-66
2023/06/29 00:07:27;;;;;;;;;73.75;59.25;;;;;;;;5078724;27;45464;-65
2023/06/29 00:09:53;;;;;;;;;74.75;56.25;;;;;;;;5087626;27;45388;-66
2023/06/29 00:12:18;;;;;;;;;70.00;57.25;;;;;;;;5057978;28;45281;-66
2023/06/29 00:14:44;;;;;;;;;78.75;65.75;;;;;;;;5074334;28;46612;-66
2023/06/29 00:17:09;;;;;;;;;70.50;54.25;;;;;;;;5073479;27;45465;-66
2023/06/29 00:19:35;;;;;;;;;63.75;51.25;;;;;;;;5091771;27;45408;-67
2023/06/29 00:22:00;;;;;;;;;65.25;51.25;;;;;;;;5065079;27;45564;-67
2023/06/29 00:24:28;;;;;;;;;65.75;53.00;;;;;;;;5098665;27;47869;-67
2023/06/29 00:26:54;;;;;;;;;68.25;52.75;;;;;;;;5090927;27;45437;-67
2023/06/29 00:29:19;;;;;;;;;71.50;54.75;;;;;;;;5078186;27;45452;-67
2023/06/29 00:31:44;;;;;;;;;70.50;54.50;;;;;;;;5088923;27;45299;-66
2023/06/29 00:34:09;;;;;;;;;70.00;54.25;;;;;;;;5084195;27;45332;-67
2023/06/29 00:36:35;;;;;;;;;69.00;52.00;;;;;;;;5081457;27;45515;-67
2023/06/29 00:39:00;;;;;;;;;67.75;52.50;;;;;;;;5091427;27;45376;-67
2023/06/29 00:41:25;;;;;;;;;74.25;57.50;;;;;;;;5059995;27;45500;-66
2023/06/29 00:43:50;;;;;;;;;73.50;58.00;;;;;;;;5087711;27;45476;-66
2023/06/29 00:46:18;;;;;;;;;77.75;66.75;;;;;;;;5085199;27;45490;-67
2023/06/29 00:48:43;;;;;;;;;80.50;74.75;;;;;;;;5080606;27;45478;-67
2023/06/29 00:51:08;;;;;;;;;80.75;67.50;;;;;;;;5089124;27;45468;-67
2023/06/29 00:53:34;;;;;;;;;78.25;61.00;;;;;;;;5078632;27;46219;-67
2023/06/29 00:56:01;;;;;;;;;74.00;58.50;;;;;;;;5076097;27;45445;-66
2023/06/29 00:58:26;;;;;;;;;73.75;59.00;;;;;;;;5058969;28;45424;-67
2023/06/29 01:00:51;;;;;;;;;76.00;66.00;;;;;;;;5075501;27;45510;-65
2023/06/29 01:03:16;;;;;;;;;74.75;62.25;;;;;;;;5079169;27;46073;-67
2023/06/29 01:05:42;;;;;;;;;71.00;56.50;;;;;;;;5086917;27;45335;-67
2023/06/29 01:08:13;;;;;;;;;75.25;58.25;;;;;;;;5076729;27;45455;-66
2023/06/29 01:10:39;;;;;;;;;74.25;58.75;;;;;;;;5076492;27;45269;-66
2023/06/29 01:13:06;;;;;;;;;70.75;57.00;;;;;;;;5074253;27;46217;-66
2023/06/29 01:15:31;;;;;;;;;73.00;57.75;;;;;;;;5072623;27;45434;-66
2023/06/29 01:17:58;;;;;;;;;72.75;54.50;;;;;;;;5073704;28;45497;-66
2023/06/29 01:20:25;;;;;;;;;74.50;55.25;;;;;;;;5073958;27;45458;-65
2023/06/29 01:23:05;;;;;;;;;72.75;55.00;;;;;;;;5074305;27;47233;-66
2023/06/29 01:25:32;;;;;;;;;68.50;49.50;;;;;;;;5076679;27;45493;-67
2023/06/29 01:27:58;;;;;;;;;75.00;56.50;;;;;;;;5077983;28;45339;-67
2023/06/29 01:30:23;;;;;;;;;69.50;53.50;;;;;;;;5059951;28;45178;-67
2023/06/29 01:32:48;;;;;;;;;72.25;54.00;;;;;;;;5077885;28;46971;-67
2023/06/29 01:35:14;;;;;;;;;70.00;53.25;;;;;;;;5077989;28;45416;-68
2023/06/29 01:37:45;;;;;;;;;68.50;53.50;;;;;;;;5078022;27;45304;-67
2023/06/29 01:40:12;;;;;;;;;67.50;53.25;;;;;;;;5077618;28;45485;-67
2023/06/29 01:42:38;;;;;;;;;65.25;52.00;;;;;;;;5059541;28;47970;-67
2023/06/29 01:45:04;;;;;;;;;63.75;50.25;;;;;;;;5077929;28;45384;-67
2023/06/29 01:47:30;;;;;;;;;67.50;52.25;;;;;;;;5077780;28;45571;-67
2023/06/29 01:49:55;;;;;;;;;67.75;53.25;;;;;;;;5077355;28;45419;-67
2023/06/29 01:52:20;;;;;;;;;65.50;51.25;;;;;;;;5077542;28;45975;-67
2023/06/29 01:54:46;;;;;;;;;65.75;51.75;;;;;;;;5077269;28;45374;-68
2023/06/29 01:57:12;;;;;;;;;66.00;52.00;;;;;;;;5077579;28;45410;-67
2023/06/29 01:59:37;;;;;;;;;56.00;45.75;;;;;;;;5075261;28;45755;-67
2023/06/29 02:02:03;;;;;;;;;63.50;50.75;;;;;;;;5075801;27;45691;-67
2023/06/29 02:04:28;;;;;;;;;61.75;49.25;;;;;;;;5075634;28;45443;-67
2023/06/29 02:06:53;;;;;;;;;65.00;51.75;;;;;;;;5076011;28;45480;-67
2023/06/29 02:09:18;;;;;;;;;47.00;40.00;;;;;;;;5076087;28;45549;-68
2023/06/29 02:11:43;;;;;;;;;64.50;50.50;;;;;;;;5057129;28;48190;-67
2023/06/29 02:14:09;;;;;;;;;65.25;50.25;;;;;;;;5075858;28;45510;-67
2023/06/29 02:16:34;;;;;;;;;63.00;49.50;;;;;;;;5075680;28;45304;-67
2023/06/29 02:19:00;;;;;;;;;69.25;54.75;;;;;;;;5057994;28;45390;-67
2023/06/29 02:21:26;;;;;;;;;65.50;52.25;;;;;;;;5075434;28;46173;-67
2023/06/29 02:23:51;;;;;;;;;64.75;51.50;;;;;;;;5075198;28;45426;-67
2023/06/29 02:26:16;;;;;;;;;59.25;46.25;;;;;;;;5057312;28;45445;-67
2023/06/29 02:28:42;;;;;;;;;50.25;41.00;;;;;;;;5075213;28;45505;-67
2023/06/29 02:31:07;;;;;;;;;57.25;45.00;;;;;;;;5075474;28;47004;-66
2023/06/29 02:33:32;;;;;;;;;52.75;43.50;;;;;;;;5075151;28;45414;-67
2023/06/29 02:35:57;;;;;;;;;52.25;42.00;;;;;;;;5074954;27;45396;-67
2023/06/29 02:38:22;;;;;;;;;51.75;43.50;;;;;;;;5075081;28;45392;-67
2023/06/29 02:40:48;;;;;;;;;51.25;40.25;;;;;;;;5075347;28;46945;-67
2023/06/29 02:43:15;;;;;;;;;51.25;40.50;;;;;;;;5075199;28;45584;-67
2023/06/29 02:45:40;;;;;;;;;52.75;43.25;;;;;;;;5075645;28;45711;-67
2023/06/29 02:48:05;;;;;;;;;49.00;40.50;;;;;;;;5056975;28;45794;-67
2023/06/29 02:50:30;;;;;;;;;51.00;36.50;;;;;;;;5090742;27;45583;-67
2023/06/29 02:52:56;;;;;;;;;54.50;43.50;;;;;;;;5091002;27;45833;-67
2023/06/29 02:55:22;;;;;;;;;50.75;42.00;;;;;;;;5075193;27;45351;-67
2023/06/29 02:57:47;;;;;;;;;53.00;39.50;;;;;;;;5075514;28;45465;-67
2023/06/29 03:00:12;;;;;;;;;47.50;37.00;;;;;;;;5075013;28;46280;-68
2023/06/29 03:02:38;;;;;;;;;46.75;36.25;;;;;;;;5076263;28;45458;-67
2023/06/29 03:05:03;;;;;;;;;43.25;34.50;;;;;;;;5076547;28;45418;-67
2023/06/29 03:07:28;;;;;;;;;40.00;34.50;;;;;;;;5075727;28;45344;-67
2023/06/29 03:09:53;;;;;;;;;36.50;30.50;;;;;;;;5076631;28;47102;-67
2023/06/29 03:12:21;;;;;;;;;36.00;31.75;;;;;;;;5076306;28;45429;-68
2023/06/29 03:14:46;;;;;;;;;33.50;31.25;;;;;;;;5076480;28;45376;-67
2023/06/29 03:17:13;;;;;;;;;30.00;28.00;;;;;;;;5076123;28;45441;-67
2023/06/29 03:19:38;;;;;;;;;33.50;30.25;;;;;;;;5055231;28;48286;-67
2023/06/29 03:22:03;;;;;;;;;32.50;28.25;;;;;;;;5076002;27;45327;-67
2023/06/29 03:24:29;;;;;;;;;31.00;27.50;;;;;;;;5076223;28;45407;-67
2023/06/29 03:26:54;;;;;;;;;24.50;23.00;;;;;;;;5076017;27;45308;-67
2023/06/29 03:29:19;;;;;;;;;22.75;22.00;;;;;;;;5074809;28;46073;-67
2023/06/29 03:31:44;;;;;;;;;29.50;23.50;;;;;;;;5090642;27;45332;-67
2023/06/29 03:34:09;;;;;;;;;28.25;25.00;;;;;;;;5074872;28;45508;-67
2023/06/29 03:36:35;;;;;;;;;23.75;22.00;;;;;;;;5057097;28;45345;-67
2023/06/29 03:39:00;;;;;;;;;23.50;22.75;;;;;;;;5076012;28;45363;-67
2023/06/29 03:41:25;;;;;;;;;26.25;22.50;;;;;;;;5057708;28;45408;-67
2023/06/29 03:43:50;;;;;;;;;19.75;17.50;;;;;;;;5076015;28;45343;-67
2023/06/29 03:46:15;;;;;;;;;30.50;22.25;;;;;;;;5075527;28;45237;-67
2023/06/29 03:48:41;;;;;;;;;21.25;20.50;;;;;;;;5075478;28;46030;-67
2023/06/29 03:51:06;;;;;;;;;20.00;18.75;;;;;;;;5075454;28;45361;-67
2023/06/29 03:53:31;;;;;;;;;19.00;17.25;;;;;;;;5091702;27;45461;-68
2023/06/29 03:55:56;;;;;;;;;30.00;23.50;;;;;;;;5091681;27;45345;-67
2023/06/29 03:58:21;;;;;;;;;26.50;24.00;;;;;;;;5075379;28;47153;-67
2023/06/29 04:00:47;;;;;;;;;31.00;28.25;;;;;;;;5075460;28;45361;-67
2023/06/29 04:03:12;;;;;;;;;25.25;23.25;;;;;;;;5075612;28;45300;-67
2023/06/29 04:05:37;;;;;;;;;25.25;23.00;;;;;;;;5075466;28;45349;-68
2023/06/29 04:08:04;;;;;;;;;23.75;21.00;;;;;;;;5075430;28;46266;-67
2023/06/29 04:10:30;;;;;;;;;27.25;24.25;;;;;;;;5075462;27;45386;-68
2023/06/29 04:12:55;;;;;;;;;21.25;17.75;;;;;;;;5074651;28;45406;-67
2023/06/29 04:15:20;;;;;;;;;24.00;22.50;;;;;;;;5075262;28;45591;-67
2023/06/29 04:17:46;;;;;;;;;25.75;21.75;;;;;;;;5056934;28;47163;-68
2023/06/29 04:20:11;;;;;;;;;24.00;21.50;;;;;;;;5074544;28;45454;-67
2023/06/29 04:22:36;;;;;;;;;24.00;21.25;;;;;;;;5071492;28;45799;-68
2023/06/29 04:25:01;;;;;;;;;25.50;24.75;;;;;;;;5074614;28;45471;-67
2023/06/29 04:27:27;;;;;;;;;28.00;24.50;;;;;;;;5074425;28;46171;-67
2023/06/29 04:29:52;;;;;;;;;25.25;25.00;;;;;;;;5090798;27;45471;-68
2023/06/29 04:32:17;;;;;;;;;24.50;20.25;;;;;;;;5074458;28;45380;-67
2023/06/29 04:34:42;;;;;;;;;21.00;20.25;;;;;;;;5074127;28;45455;-68
2023/06/29 04:37:09;;;;;;;;;27.50;23.75;;;;;;;;5074803;28;46134;-67
2023/06/29 04:39:34;;;;;;;;;24.50;21.25;;;;;;;;5056584;28;45471;-67
2023/06/29 04:42:03;;;;;;;;;23.75;21.25;;;;;;;;5074757;28;45546;-68
2023/06/29 04:44:34;;;;;;;;;27.75;27.25;;;;;;;;5074764;28;45738;-68
2023/06/29 04:47:00;;;;;;;;;24.00;21.50;;;;;;;;5073196;28;45437;-68
2023/06/29 04:49:27;;;;;;;;;22.75;21.00;;;;;;;;5073523;28;45541;-68
2023/06/29 04:51:55;;;;;;;;;23.75;19.25;;;;;;;;5074352;28;45311;-67
2023/06/29 04:54:21;;;;;;;;;20.75;17.25;;;;;;;;5074265;28;45280;-67
2023/06/29 04:56:46;;;;;;;;;23.00;19.00;;;;;;;;5073979;28;47216;-67
2023/06/29 04:59:12;;;;;;;;;24.25;22.00;;;;;;;;5076797;28;45353;-67
2023/06/29 05:01:37;;;;;;;;;25.75;23.50;;;;;;;;5075864;28;45806;-67
2023/06/29 05:04:02;;;;;;;;;20.50;18.75;;;;;;;;5076993;28;45440;-67
2023/06/29 05:06:27;;;;;;;;;25.50;24.25;;;;;;;;5077768;28;47015;-67
2023/06/29 05:08:53;;;;;;;;;25.75;20.75;;;;;;;;5077811;28;45408;-67
2023/06/29 05:11:18;;;;;;;;;24.25;19.75;;;;;;;;5077290;28;45362;-67
2023/06/29 05:13:43;;;;;;;;;19.75;17.25;;;;;;;;5078021;28;45245;-67
2023/06/29 05:16:08;;;;;;;;;21.50;21.50;;;;;;;;5077006;28;47121;-67
2023/06/29 05:18:35;;;;;;;;;21.00;19.50;;;;;;;;5077586;28;45285;-67
2023/06/29 05:21:01;;;;;;;;;17.00;17.00;;;;;;;;5077702;27;45428;-67
2023/06/29 05:23:27;;;;;;;;;23.00;21.00;;;;;;;;5077127;28;45772;-67
2023/06/29 05:25:52;;;;;;;;;24.00;20.25;;;;;;;;5077421;28;46066;-67
2023/06/29 05:28:17;;;;;;;;;28.25;24.50;;;;;;;;5077726;28;45374;-67
2023/06/29 05:30:43;;;;;;;;;20.25;17.75;;;;;;;;5077694;28;45550;-67
2023/06/29 05:33:08;;;;;;;;;23.75;20.75;;;;;;;;5077320;28;45409;-67
2023/06/29 05:35:35;;;;;;;;;24.50;21.75;;;;;;;;5077101;28;46311;-67
2023/06/29 05:38:00;;;;;;;;;24.75;22.00;;;;;;;;5077601;28;45469;-66
2023/06/29 05:40:26;;;;;;;;;20.75;19.25;;;;;;;;5077994;27;45359;-68
2023/06/29 05:42:51;;;;;;;;;22.00;20.00;;;;;;;;5077856;28;45512;-68
2023/06/29 05:45:16;;;;;;;;;23.50;17.75;;;;;;;;5077717;28;46243;-68
2023/06/29 05:47:41;;;;;;;;;26.00;22.75;;;;;;;;5076283;28;45414;-68
2023/06/29 05:50:07;;;;;;;;;25.00;23.00;;;;;;;;5076922;28;45797;-69
2023/06/29 05:52:33;;;;;;;;;20.25;17.75;;;;;;;;5077112;28;45574;-69
2023/06/29 05:54:59;;;;;;;;;26.50;24.00;;;;;;;;5077921;28;45583;-69
2023/06/29 05:57:24;;;;;;;;;24.25;21.75;;;;;;;;5077177;28;45361;-69
2023/06/29 05:59:49;;;;;;;;;21.50;19.75;;;;;;;;5076949;28;45371;-69
2023/06/29 06:02:14;;;;;;;;;28.50;24.50;;;;;;;;5076986;28;45297;-69
2023/06/29 06:04:40;;;;;;;;;21.75;17.75;;;;;;;;5076949;28;47290;-69
2023/06/29 06:07:05;;;;;;;;;24.50;23.75;;;;;;;;5077094;28;45327;-69
2023/06/29 06:09:30;;;;;;;;;32.00;24.75;;;;;;;;5058894;28;45457;-69
2023/06/29 06:11:55;;;;;;;;;30.50;22.75;;;;;;;;5076683;28;45499;-69
2023/06/29 06:14:21;;;;;;;;;23.50;20.75;;;;;;;;5077200;28;46176;-69
2023/06/29 06:16:46;;;;;;;;;21.50;18.50;;;;;;;;5076234;28;45361;-69
2023/06/29 06:19:11;;;;;;;;;28.50;25.25;;;;;;;;5076443;28;45313;-69
2023/06/29 06:21:36;;;;;;;;;23.00;21.00;;;;;;;;5076646;27;45511;-69
2023/06/29 06:24:01;;;;;;;;;24.00;22.75;;;;;;;;5076009;28;46288;-69
2023/06/29 06:26:28;;;;;;;;;25.50;20.50;;;;;;;;5076656;27;45667;-68
2023/06/29 06:28:53;;;;;;;;;24.25;20.50;;;;;;;;5076589;28;45356;-69
2023/06/29 06:31:18;;;;;;;;;24.75;23.50;;;;;;;;5076072;28;45300;-69
2023/06/29 06:33:45;;;;;;;;;20.00;19.00;;;;;;;;5076937;28;45365;-69
2023/06/29 06:36:11;;;;;;;;;22.00;19.75;;;;;;;;5076201;28;45394;-69
2023/06/29 06:38:36;;;;;;;;;24.00;20.00;;;;;;;;5076904;28;45412;-69
2023/06/29 06:41:01;;;;;;;;;22.25;20.00;;;;;;;;5076709;28;45657;-69
2023/06/29 06:43:26;;;;;;;;;23.25;21.00;;;;;;;;5076521;28;45539;-69
2023/06/29 06:45:52;;;;;;;;;23.00;22.00;;;;;;;;5076313;28;45406;-69
2023/06/29 06:48:18;;;;;;;;;25.25;22.75;;;;;;;;5076324;28;45435;-68
2023/06/29 06:50:43;;;;;;;;;28.75;22.00;;;;;;;;5075552;27;45320;-69
2023/06/29 06:53:09;;;;;;;;;22.00;20.75;;;;;;;;5075170;28;45411;-68
2023/06/29 06:55:34;;;;;;;;;28.50;23.00;;;;;;;;5075097;28;45424;-69
2023/06/29 06:57:59;;;;;;;;;26.25;25.50;;;;;;;;5057213;28;45352;-68
2023/06/29 07:00:26;;;;;;;;;27.25;24.75;;;;;;;;5076038;28;45395;-69
2023/06/29 07:02:51;;;;;;;;;28.75;26.25;;;;;;;;5057880;28;48334;-69
2023/06/29 07:05:17;;;;;;;;;20.75;19.75;;;;;;;;5075850;28;45371;-69
2023/06/29 07:07:42;;;;;;;;;24.25;22.50;;;;;;;;5076020;28;45380;-69
2023/06/29 07:10:08;;;;;;;;;30.50;24.75;;;;;;;;5076031;28;45464;-69
2023/06/29 07:12:33;;;;;;;;;29.50;28.25;;;;;;;;5075301;28;45515;-69
2023/06/29 07:14:58;;;;;;;;;25.75;21.75;;;;;;;;5075257;28;45597;-69
2023/06/29 07:17:24;;;;;;;;;21.50;19.75;;;;;;;;5075826;28;45414;-69
2023/06/29 07:19:49;;;;;;;;;27.50;23.00;;;;;;;;5075397;27;45437;-68
2023/06/29 07:22:14;;;;;;;;;29.25;24.75;;;;;;;;5056700;28;46155;-67
2023/06/29 07:24:39;;;;;;;;;24.00;24.00;;;;;;;;5057308;28;45489;-67
2023/06/29 07:27:05;;;;;;;;;24.00;23.25;;;;;;;;5075714;27;45862;-68
2023/06/29 07:29:30;;;;;;;;;25.50;21.50;;;;;;;;5040354;28;45800;-67
2023/06/29 07:31:55;;;;;;;;;29.50;23.25;;;;;;;;5075354;28;46297;-68
2023/06/29 07:34:23;;;;;;;;;26.25;22.75;;;;;;;;5075657;28;45380;-68
2023/06/29 07:36:48;;;;;;;;;29.75;25.00;;;;;;;;5057051;28;45480;-68
2023/06/29 07:39:13;;;;;;;;;22.00;18.25;;;;;;;;5075268;28;45375;-67
2023/06/29 07:41:39;;;;;;;;;26.00;22.25;;;;;;;;5056991;28;48520;-67
2023/06/29 07:44:04;;;;;;;;;27.50;26.50;;;;;;;;5075920;28;45331;-67
2023/06/29 07:46:31;;;;;;;;;26.25;23.50;;;;;;;;5076076;28;45406;-67
2023/06/29 07:48:58;;;;;;;;;25.75;20.25;;;;;;;;5075878;28;45634;-67
2023/06/29 07:51:24;;;;;;;;;26.50;25.50;;;;;;;;5075505;28;45990;-68
2023/06/29 07:53:50;;;;;;;;;27.50;24.50;;;;;;;;5057370;28;45375;-67
2023/06/29 07:56:15;;;;;;;;;23.75;22.00;;;;;;;;5075822;28;45406;-68
2023/06/29 07:58:40;;;;;;;;;26.00;25.00;;;;;;;;5075666;28;45494;-67
2023/06/29 08:01:05;;;;;;;;;24.25;23.50;;;;;;;;5075373;28;46244;-67
2023/06/29 08:03:32;;;;;;;;;17.50;17.50;;;;;;;;5075392;28;45368;-67
2023/06/29 08:05:57;;;;;;;;;24.00;22.50;;;;;;;;5075292;28;45343;-67
2023/06/29 08:08:22;;;;;;;;;22.00;20.00;;;;;;;;5075095;28;45407;-67
2023/06/29 08:10:48;;;;;;;;;27.50;23.00;;;;;;;;5075232;28;46527;-67
2023/06/29 08:13:13;;;;;;;;;28.50;24.50;;;;;;;;5074873;28;45371;-67
2023/06/29 08:15:38;;;;;;;;;30.25;25.75;;;;;;;;5075590;28;45228;-68
2023/06/29 08:18:03;;;;;;;;;26.00;23.25;;;;;;;;5057153;28;45450;-68
2023/06/29 08:20:29;;;;;;;;;24.50;23.00;;;;;;;;5075055;28;47111;-68
2023/06/29 08:22:54;;;;;;;;;25.25;24.75;;;;;;;;5075313;28;45362;-68
2023/06/29 08:25:22;;;;;;;;;33.00;27.00;;;;;;;;5074975;28;45293;-68
2023/06/29 08:27:49;;;;;;;;;29.75;24.75;;;;;;;;5075357;28;45638;-67
2023/06/29 08:30:14;;;;;;;;;24.50;22.75;;;;;;;;5074802;28;45434;-67
2023/06/29 08:32:39;;;;;;;;;28.25;23.75;;;;;;;;5057315;28;45422;-67
2023/06/29 08:35:05;;;;;;;;;21.75;21.75;;;;;;;;5078785;28;45352;-68
2023/06/29 08:37:30;;;;;;;;;28.25;26.25;;;;;;;;5060471;28;45451;-68
2023/06/29 08:39:56;;;;;;;;;25.50;23.50;;;;;;;;5078223;28;45496;-68
2023/06/29 08:42:21;;;;;;;;;24.00;21.75;;;;;;;;5077907;28;45360;-68
2023/06/29 08:44:46;;;;;;;;;30.50;26.00;;;;;;;;5077819;27;45450;-68
2023/06/29 08:47:12;;;;;;;;;26.25;23.50;;;;;;;;5077619;28;45561;-67
2023/06/29 08:49:38;;;;;;;;;29.25;25.00;;;;;;;;5078039;28;46014;-69
2023/06/29 08:52:04;;;;;;;;;28.00;24.25;;;;;;;;5077073;27;45460;-67
2023/06/29 08:54:32;;;;;;;;;34.25;30.00;;;;;;;;5074736;27;45431;-67
2023/06/29 08:57:01;;;;;;;;;23.25;21.75;;;;;;;;5077093;28;45692;-70
2023/06/29 08:59:26;;;;;;;;;22.50;20.00;;;;;;;;5077454;28;46218;-69
2023/06/29 09:01:52;;;;;;;;;27.75;24.50;;;;;;;;5077293;27;45602;-68
2023/06/29 09:04:17;;;;;;;;;31.25;25.25;;;;;;;;5077817;28;45450;-68
2023/06/29 09:06:42;;;;;;;;;26.50;22.25;;;;;;;;5060026;28;45390;-68
2023/06/29 09:09:07;;;;;;;;;23.00;20.25;;;;;;;;5077881;28;45461;-68
2023/06/29 09:11:33;;;;;;;;;29.50;24.50;;;;;;;;5077819;27;45486;-68
2023/06/29 09:14:02;;;;;;;;;27.50;24.00;;;;;;;;5077945;28;45340;-68
2023/06/29 09:16:28;;;;;;;;;34.50;27.25;;;;;;;;5078526;28;45339;-68
2023/06/29 09:18:54;;;;;;;;;32.00;25.50;;;;;;;;5077948;28;47537;-68
2023/06/29 09:21:21;;;;;;;;;27.75;25.25;;;;;;;;5077896;28;45482;-67
2023/06/29 09:23:46;;;;;;;;;29.75;24.00;;;;;;;;5078317;27;45395;-67
2023/06/29 09:26:11;;;;;;;;;21.00;21.00;;;;;;;;5077930;27;45552;-67
2023/06/29 09:28:43;;;;;;;;;25.75;23.75;;;;;;;;5059873;28;47101;-67
2023/06/29 09:31:08;;;;;;;;;29.25;23.75;;;;;;;;5078510;27;45380;-68
2023/06/29 09:33:33;;;;;;;;;21.00;20.00;;;;;;;;5078255;28;45416;-69
2023/06/29 09:36:04;;;;;;;;;34.75;26.50;;;;;;;;5078325;28;45418;-68
2023/06/29 09:38:29;;;;;;;;;21.75;19.25;;;;;;;;5077898;27;46240;-69
2023/06/29 09:40:55;;;;;;;;;19.75;19.75;;;;;;;;5060216;28;45341;-68
2023/06/29 09:43:21;;;;;;;;;24.25;20.00;;;;;;;;5078208;27;45325;-68
2023/06/29 09:45:46;;;;;;;;;28.25;23.00;;;;;;;;5078650;28;45460;-68
2023/06/29 09:48:12;;;;;;;;;23.75;18.75;;;;;;;;5077850;28;46056;-69
2023/06/29 09:50:40;;;;;;;;;26.00;23.25;;;;;;;;5078425;28;45514;-69
2023/06/29 09:53:09;;;;;;;;;24.75;20.00;;;;;;;;5078381;28;45379;-70
2023/06/29 09:55:34;;;;;;;;;22.50;20.00;;;;;;;;5078106;27;45486;-68
2023/06/29 09:58:00;;;;;;;;;18.50;17.00;;;;;;;;5077410;28;46013;-68
2023/06/29 10:00:27;;;;;;;;;20.00;19.50;;;;;;;;5077596;28;45280;-68
2023/06/29 10:02:53;;;;;;;;;26.25;23.00;;;;;;;;5077432;28;45373;-68
2023/06/29 10:05:18;;;;;;;;;25.75;22.00;;;;;;;;5059398;27;45446;-70
2023/06/29 10:07:43;;;;;;;;;30.00;28.00;;;;;;;;5076849;28;46173;-68
2023/06/29 10:10:10;;;;;;;;;32.75;29.25;;;;;;;;5077324;27;45454;-68
2023/06/29 10:12:35;;;;;;;;;29.25;25.25;;;;;;;;5059228;28;45347;-68
2023/06/29 10:15:08;;;;;;;;;26.25;20.75;;;;;;;;5077226;28;45366;-69
2023/06/29 10:17:45;;;;;;;;;27.50;24.75;;;;;;;;5077009;27;46401;-67
2023/06/29 10:20:11;;;;;;;;;26.00;22.75;;;;;;;;5076870;28;45450;-67
2023/06/29 10:22:38;;;;;;;;;30.50;27.00;;;;;;;;5077153;28;45328;-66
2023/06/29 10:25:06;;;;;;;;;31.75;27.75;;;;;;;;5077395;28;45382;-68
2023/06/29 10:27:33;;;;;;;;;35.75;27.25;;;;;;;;5076640;28;47159;-69
2023/06/29 10:30:01;;;;;;;;;26.00;21.50;;;;;;;;5077224;27;45395;-67
2023/06/29 10:32:30;;;;;;;;;30.25;25.75;;;;;;;;5077022;28;45418;-68
2023/06/29 10:35:01;;;;;;;;;28.50;26.50;;;;;;;;5077167;28;45277;-67
2023/06/29 10:37:33;;;;;;;;;30.25;25.00;;;;;;;;5076348;27;46342;-67
2023/06/29 10:39:58;;;;;;;;;28.50;22.50;;;;;;;;5076593;28;45431;-67
2023/06/29 10:42:24;;;;;;;;;27.00;22.00;;;;;;;;5076956;28;45452;-67
2023/06/29 10:44:49;;;;;;;;;32.50;26.00;;;;;;;;5076329;28;45371;-67
2023/06/29 10:47:27;;;;;;;;;27.25;25.75;;;;;;;;5076642;28;45502;-67
2023/06/29 10:50:24;;;;;;;;;26.25;25.50;;;;;;;;5076724;28;45386;-67
2023/06/29 10:52:50;;;;;;;;;29.75;28.50;;;;;;;;5056097;27;45665;-67
2023/06/29 10:55:19;;;;;;;;;32.25;30.75;;;;;;;;5075397;27;45339;-67
2023/06/29 10:57:51;;;;;;;;;31.50;26.50;;;;;;;;5076730;28;46045;-67
2023/06/29 11:00:17;;;;;;;;;31.50;28.25;;;;;;;;5076641;28;45681;-67
2023/06/29 11:02:43;;;;;;;;;35.25;30.75;;;;;;;;5076314;27;45388;-67
2023/06/29 11:05:15;;;;;;;;;32.25;29.00;;;;;;;;5076217;28;45470;-68
2023/06/29 11:07:41;;;;;;;;;32.50;31.50;;;;;;;;5075612;28;45405;-68
2023/06/29 11:10:07;;;;;;;;;33.00;30.00;;;;;;;;5075733;27;45301;-67
2023/06/29 11:12:32;;;;;;;;;27.75;25.75;;;;;;;;5076351;28;45351;-68
2023/06/29 11:14:57;;;;;;;;;31.25;28.00;;;;;;;;5076094;28;45232;-68
2023/06/29 11:17:23;;;;;;;;;30.50;27.25;;;;;;;;5040986;28;47227;-68
2023/06/29 11:19:49;;;;;;;;;29.75;28.25;;;;;;;;5057365;28;45797;-69
2023/06/29 11:22:15;;;;;;;;;31.25;27.00;;;;;;;;5075549;28;45373;-69
2023/06/29 11:24:43;;;;;;;;;30.00;27.50;;;;;;;;5075725;28;45490;-69
2023/06/29 11:27:08;;;;;;;;;32.50;30.25;;;;;;;;5075797;28;46079;-68
2023/06/29 11:29:33;;;;;;;;;28.50;28.50;;;;;;;;5075829;28;45529;-68
2023/06/29 11:32:02;;;;;;;;;30.25;28.50;;;;;;;;5058068;28;45246;-68
2023/06/29 11:34:27;;;;;;;;;34.00;30.50;;;;;;;;5075727;27;45616;-67
2023/06/29 11:36:52;;;;;;;;;31.00;29.00;;;;;;;;5057047;28;46069;-67
2023/06/29 11:39:18;;;;;;;;;16.75;12.75;;;;;;;;5057150;28;45501;-67
2023/06/29 11:41:43;;;;;;;;;29.25;25.25;;;;;;;;5076027;28;45362;-67
2023/06/29 11:44:08;;;;;;;;;35.75;30.25;;;;;;;;5075852;28;45330;-67
2023/06/29 11:46:34;;;;;;;;;44.00;34.00;;;;;;;;5074636;27;47391;-67
2023/06/29 11:49:06;;;;;;;;;36.00;31.75;;;;;;;;5089348;27;45676;-66
2023/06/29 11:51:33;;;;;;;;;31.50;29.50;;;;;;;;5037329;28;45597;-67
2023/06/29 11:53:59;;;;;;;;;0.00;0.00;;;;;;;;5056849;28;45303;-67
2023/06/29 11:56:24;;;;;;;;;27.25;25.25;;;;;;;;5075061;28;46431;-68
2023/06/29 11:58:49;;;;;;;;;31.00;28.25;;;;;;;;5074861;27;45469;-68
2023/06/29 12:01:15;;;;;;;;;30.25;26.25;;;;;;;;5075316;28;45696;-67
2023/06/29 12:03:40;;;;;;;;;31.75;28.00;;;;;;;;5075482;28;45307;-66
2023/06/29 12:06:05;;;;;;;;;25.00;23.50;;;;;;;;5075107;27;47233;-66
2023/06/29 12:08:37;;;;;;;;;25.75;24.25;;;;;;;;5056762;28;45393;-68
2023/06/29 12:11:03;;;;;;;;;31.00;28.75;;;;;;;;5056641;28;45690;-67
2023/06/29 12:13:28;;;;;;;;;30.00;23.50;;;;;;;;5074817;28;45613;-67
2023/06/29 12:15:54;;;;;;;;;25.00;25.00;;;;;;;;5074730;28;45695;-68
2023/06/29 12:18:19;;;;;;;;;30.75;25.00;;;;;;;;5074715;28;45464;-68
2023/06/29 12:20:45;;;;;;;;;28.75;25.00;;;;;;;;5056663;28;45391;-68
2023/06/29 12:23:11;;;;;;;;;20.25;18.50;;;;;;;;5056551;28;45396;-68
2023/06/29 12:25:46;;;;;;;;;22.25;20.25;;;;;;;;5074691;27;46268;-68
2023/06/29 12:28:11;;;;;;;;;28.25;21.75;;;;;;;;5074709;28;45268;-67
2023/06/29 12:30:37;;;;;;;;;28.50;22.00;;;;;;;;5056633;28;45305;-68
2023/06/29 12:33:02;;;;;;;;;24.75;23.00;;;;;;;;5074478;28;45502;-68
2023/06/29 12:35:29;;;;;;;;;21.00;19.75;;;;;;;;5074604;28;46398;-69
2023/06/29 12:37:54;;;;;;;;;19.00;17.00;;;;;;;;5074740;28;45760;-66
2023/06/29 12:40:19;;;;;;;;;18.00;17.50;;;;;;;;5074850;28;45293;-66
2023/06/29 12:42:45;;;;;;;;;23.00;20.75;;;;;;;;5056796;28;45451;-67
2023/06/29 12:45:10;;;;;;;;;21.50;18.50;;;;;;;;5074755;28;46346;-67
2023/06/29 12:47:36;;;;;;;;;21.75;17.75;;;;;;;;5074790;28;45343;-67
2023/06/29 12:50:02;;;;;;;;;17.75;16.75;;;;;;;;5074882;28;45903;-67
2023/06/29 12:52:27;;;;;;;;;28.75;25.25;;;;;;;;5075233;28;45542;-67
2023/06/29 12:54:52;;;;;;;;;24.75;21.75;;;;;;;;5074600;28;45475;-67
2023/06/29 12:57:18;;;;;;;;;20.00;18.00;;;;;;;;5074806;28;45520;-68
2023/06/29 12:59:44;;;;;;;;;21.25;19.00;;;;;;;;5075151;28;45376;-67
2023/06/29 13:02:09;;;;;;;;;23.00;19.00;;;;;;;;5074502;28;45631;-67
2023/06/29 13:04:38;;;;;;;;;17.25;17.25;;;;;;;;5074702;27;46934;-67
2023/06/29 13:07:04;;;;;;;;;21.00;20.75;;;;;;;;5056620;28;45724;-67
2023/06/29 13:09:35;;;;;;;;;16.75;12.00;;;;;;;;5074665;28;45442;-68
2023/06/29 13:12:00;;;;;;;;;25.50;18.25;;;;;;;;5074779;28;45458;-67
2023/06/29 13:14:26;;;;;;;;;21.25;19.00;;;;;;;;5074486;27;45399;-67
2023/06/29 13:16:51;;;;;;;;;16.75;15.75;;;;;;;;5074416;27;45396;-67
2023/06/29 13:19:16;;;;;;;;;15.25;14.50;;;;;;;;5076030;28;45363;-66
2023/06/29 13:21:41;;;;;;;;;15.00;14.75;;;;;;;;5077847;28;45382;-67
2023/06/29 13:24:07;;;;;;;;;18.00;15.25;;;;;;;;5077952;28;46361;-69
2023/06/29 13:26:32;;;;;;;;;12.25;11.50;;;;;;;;5077766;28;45371;-67
2023/06/29 13:28:57;;;;;;;;;16.50;14.25;;;;;;;;5078156;28;45316;-69
2023/06/29 13:31:22;;;;;;;;;18.00;14.25;;;;;;;;5077658;28;45381;-67
2023/06/29 13:33:47;;;;;;;;;15.50;14.75;;;;;;;;5077774;28;45894;-67
2023/06/29 13:36:13;;;;;;;;;15.50;14.50;;;;;;;;5059415;28;45394;-67
2023/06/29 13:38:38;;;;;;;;;14.50;11.25;;;;;;;;5078036;28;45421;-68
2023/06/29 13:41:04;;;;;;;;;18.25;14.50;;;;;;;;5078170;27;45386;-67
2023/06/29 13:43:29;;;;;;;;;14.50;13.00;;;;;;;;5077575;28;45324;-67
2023/06/29 13:45:54;;;;;;;;;12.25;10.75;;;;;;;;5077707;28;45361;-67
2023/06/29 13:48:19;;;;;;;;;11.25;10.50;;;;;;;;5077859;28;45381;-67
2023/06/29 13:50:45;;;;;;;;;10.50;9.25;;;;;;;;5077896;28;45291;-68
2023/06/29 13:53:10;;;;;;;;;10.25;9.00;;;;;;;;5078070;28;46119;-67
2023/06/29 13:55:36;;;;;;;;;10.25;10.25;;;;;;;;5077906;27;45418;-67
2023/06/29 13:58:01;;;;;;;;;10.25;8.50;;;;;;;;5077913;28;45273;-68
2023/06/29 14:00:27;;;;;;;;;11.75;9.00;;;;;;;;5078081;28;45443;-67
2023/06/29 14:02:52;;;;;;;;;8.75;8.75;;;;;;;;5077639;27;46998;-68
2023/06/29 14:05:17;;;;;;;;;8.00;8.00;;;;;;;;5077365;28;45363;-68
2023/06/29 14:07:43;;;;;;;;;7.75;7.75;;;;;;;;5059739;28;45374;-69
2023/06/29 14:10:08;;;;;;;;;8.50;8.50;;;;;;;;5059770;28;45562;-67